Página principal
METAR-TAF:

METAR-TAF

Aeroportos :

Aeroporto Internacional do Kuwait

Kuwait, Kuwait

latitude: 29-13N, longitude: 047-59E, altura: 55 m

Observação actual do tempo

O boletim foi feito há 39 minutos, às 13:00 UTC
Vento 12 kt de norte
Temperatura 21°C
Humidade 28%
Pressão 1018 hPa
Visibilidade 10 km ou mais
Nuvens dispersasa uma altura de 4000 ft

METAR: OKBK 171300Z 35012KT 9999 SCT040 21/02 Q1018 NOSIG

Hora: 16:39 (13:39 UTC)

Previsão

O boletim foi feito há 2 horas e 54 minutos, às 10:45 UTC
Previsão válida de 17 às 12 UTC a 18 às 18 UTC
Vento 12 kt de nor-noroeste
Visibilidade: 7000 m
Céu limpo
Temporariamente
de 17 às 20 UTC a 18 às 03 UTC
Vento 3 kt com direcção variável
Visibilidade: 3000 m
neblina

TAF: OKBK 171045Z 1712/1818 33012KT 7000 SKC TEMPO 1720/1803 VRB03KT 3000 BR

Observações e previsões do tempo de mais de 4000 aeroportos (mensagens METAR e TAF).

As estações disponíveis são os pontos amarelos e vermelhos sobre o mapa.

Mova o rato sobre o mapa para ver o nome da estação.

Depois clique no ponto para visualizar as observações e previsões meteorológicas.

Para alterar o mapa : clique nos botões verdes com uma cruz preta para aumentar o zoom; no botão verde com uma pitada de zoom; ou nas setas verdes para mapas adjacentes.


METAR-TAF: